sensor_id;sensor_type;location;lat;lon;timestamp;temperature;humidity
30001;DHT22;16845;48.670;9.000;2022-10-10T00:01:47;11.60;99.90
30001;DHT22;16845;48.670;9.000;2022-10-10T00:04:15;11.60;99.90
30001;DHT22;16845;48.670;9.000;2022-10-10T00:06:44;11.70;99.90
30001;DHT22;16845;48.670;9.000;2022-10-10T00:09:12;11.60;99.90
30001;DHT22;16845;48.670;9.000;2022-10-10T00:11:40;11.60;99.90
30001;DHT22;16845;48.670;9.000;2022-10-10T00:14:10;11.70;99.90
30001;DHT22;16845;48.670;9.000;2022-10-10T00:16:38;11.60;99.90
30001;DHT22;16845;48.670;9.000;2022-10-10T00:19:06;11.70;99.90
30001;DHT22;16845;48.670;9.000;2022-10-10T00:21:34;11.60;99.90
30001;DHT22;16845;48.670;9.000;2022-10-10T00:24:03;11.60;99.90
30001;DHT22;16845;48.670;9.000;2022-10-10T00:26:31;11.60;99.90
30001;DHT22;16845;48.670;9.000;2022-10-10T00:28:59;11.60;99.90
30001;DHT22;16845;48.670;9.000;2022-10-10T00:31:28;11.60;99.90
30001;DHT22;16845;48.670;9.000;2022-10-10T00:33:56;11.60;99.90
30001;DHT22;16845;48.670;9.000;2022-10-10T00:36:24;11.60;99.90
30001;DHT22;16845;48.670;9.000;2022-10-10T00:38:52;11.60;99.90
30001;DHT22;16845;48.670;9.000;2022-10-10T00:41:20;11.70;99.90
30001;DHT22;16845;48.670;9.000;2022-10-10T00:44:08;11.70;99.90
30001;DHT22;16845;48.670;9.000;2022-10-10T00:46:37;11.70;99.90
30001;DHT22;16845;48.670;9.000;2022-10-10T00:49:09;11.70;99.90
30001;DHT22;16845;48.670;9.000;2022-10-10T00:51:38;11.70;99.90
30001;DHT22;16845;48.670;9.000;2022-10-10T00:54:08;11.60;99.90
30001;DHT22;16845;48.670;9.000;2022-10-10T00:56:40;11.70;99.90
30001;DHT22;16845;48.670;9.000;2022-10-10T00:59:10;11.70;99.90
30001;DHT22;16845;48.670;9.000;2022-10-10T01:01:40;11.70;99.90
30001;DHT22;16845;48.670;9.000;2022-10-10T01:04:27;11.60;99.90
30001;DHT22;16845;48.670;9.000;2022-10-10T01:06:56;11.60;99.90
30001;DHT22;16845;48.670;9.000;2022-10-10T01:09:25;11.70;99.90
30001;DHT22;16845;48.670;9.000;2022-10-10T01:11:59;11.60;99.90
30001;DHT22;16845;48.670;9.000;2022-10-10T01:14:32;11.60;99.90
30001;DHT22;16845;48.670;9.000;2022-10-10T01:17:11;11.60;99.90
30001;DHT22;16845;48.670;9.000;2022-10-10T01:20:10;11.60;99.90
30001;DHT22;16845;48.670;9.000;2022-10-10T01:22:57;11.50;99.90
30001;DHT22;16845;48.670;9.000;2022-10-10T01:25:28;11.40;99.90
30001;DHT22;16845;48.670;9.000;2022-10-10T01:28:00;11.40;99.90
30001;DHT22;16845;48.670;9.000;2022-10-10T01:30:30;11.50;99.90
30001;DHT22;16845;48.670;9.000;2022-10-10T01:33:07;11.40;99.90
30001;DHT22;16845;48.670;9.000;2022-10-10T01:35:45;11.50;99.90
30001;DHT22;16845;48.670;9.000;2022-10-10T01:38:26;11.50;99.90
30001;DHT22;16845;48.670;9.000;2022-10-10T01:41:02;11.50;99.90
30001;DHT22;16845;48.670;9.000;2022-10-10T01:43:34;11.50;99.90
30001;DHT22;16845;48.670;9.000;2022-10-10T01:46:09;11.60;99.90
30001;DHT22;16845;48.670;9.000;2022-10-10T01:48:38;11.50;99.90
30001;DHT22;16845;48.670;9.000;2022-10-10T01:51:28;11.60;99.90
30001;DHT22;16845;48.670;9.000;2022-10-10T01:54:05;11.60;99.90
30001;DHT22;16845;48.670;9.000;2022-10-10T01:56:41;11.50;99.90
30001;DHT22;16845;48.670;9.000;2022-10-10T01:59:23;11.50;99.90
30001;DHT22;16845;48.670;9.000;2022-10-10T02:02:03;11.60;99.90
30001;DHT22;16845;48.670;9.000;2022-10-10T02:04:35;11.60;99.90
30001;DHT22;16845;48.670;9.000;2022-10-10T02:07:09;11.60;99.90
30001;DHT22;16845;48.670;9.000;2022-10-10T02:09:40;11.70;99.90
30001;DHT22;16845;48.670;9.000;2022-10-10T02:12:10;11.70;99.90
30001;DHT22;16845;48.670;9.000;2022-10-10T02:14:41;11.70;99.90
30001;DHT22;16845;48.670;9.000;2022-10-10T02:17:13;11.70;99.90
30001;DHT22;16845;48.670;9.000;2022-10-10T02:19:45;11.70;99.90
30001;DHT22;16845;48.670;9.000;2022-10-10T02:22:13;11.70;99.90
30001;DHT22;16845;48.670;9.000;2022-10-10T02:24:41;11.70;99.90
30001;DHT22;16845;48.670;9.000;2022-10-10T02:27:16;11.80;99.90
30001;DHT22;16845;48.670;9.000;2022-10-10T02:29:46;11.70;99.90
30001;DHT22;16845;48.670;9.000;2022-10-10T02:32:19;11.80;99.90
30001;DHT22;16845;48.670;9.000;2022-10-10T02:34:51;11.80;99.90
30001;DHT22;16845;48.670;9.000;2022-10-10T02:37:19;11.80;99.90
30001;DHT22;16845;48.670;9.000;2022-10-10T02:39:52;11.70;99.90
30001;DHT22;16845;48.670;9.000;2022-10-10T02:42:23;11.70;99.90
30001;DHT22;16845;48.670;9.000;2022-10-10T02:44:52;11.70;99.90
30001;DHT22;16845;48.670;9.000;2022-10-10T02:47:22;11.70;99.90
30001;DHT22;16845;48.670;9.000;2022-10-10T02:49:50;11.70;99.90
30001;DHT22;16845;48.670;9.000;2022-10-10T02:52:18;11.70;99.90
30001;DHT22;16845;48.670;9.000;2022-10-10T02:54:46;11.80;99.90
30001;DHT22;16845;48.670;9.000;2022-10-10T02:57:14;11.80;99.90
30001;DHT22;16845;48.670;9.000;2022-10-10T02:59:43;11.70;99.90
30001;DHT22;16845;48.670;9.000;2022-10-10T03:02:11;11.70;99.90
30001;DHT22;16845;48.670;9.000;2022-10-10T03:04:40;11.80;99.90
30001;DHT22;16845;48.670;9.000;2022-10-10T03:07:10;11.80;99.90
30001;DHT22;16845;48.670;9.000;2022-10-10T03:09:38;11.80;99.90
30001;DHT22;16845;48.670;9.000;2022-10-10T03:12:06;11.80;99.90
30001;DHT22;16845;48.670;9.000;2022-10-10T03:14:34;11.80;99.90
30001;DHT22;16845;48.670;9.000;2022-10-10T03:17:02;11.90;99.90
30001;DHT22;16845;48.670;9.000;2022-10-10T03:19:30;11.80;99.90
30001;DHT22;16845;48.670;9.000;2022-10-10T03:22:00;11.90;99.90
30001;DHT22;16845;48.670;9.000;2022-10-10T03:24:28;11.90;99.90
30001;DHT22;16845;48.670;9.000;2022-10-10T03:26:56;11.90;99.90
30001;DHT22;16845;48.670;9.000;2022-10-10T03:29:24;11.90;99.90
30001;DHT22;16845;48.670;9.000;2022-10-10T03:31:52;12.00;99.90
30001;DHT22;16845;48.670;9.000;2022-10-10T03:34:19;12.00;99.90
30001;DHT22;16845;48.670;9.000;2022-10-10T03:36:47;12.00;99.90
30001;DHT22;16845;48.670;9.000;2022-10-10T03:39:17;12.00;99.90
30001;DHT22;16845;48.670;9.000;2022-10-10T03:41:45;12.00;99.90
30001;DHT22;16845;48.670;9.000;2022-10-10T03:44:13;12.10;99.90
30001;DHT22;16845;48.670;9.000;2022-10-10T03:46:41;12.10;99.90
30001;DHT22;16845;48.670;9.000;2022-10-10T03:49:08;12.10;99.90
30001;DHT22;16845;48.670;9.000;2022-10-10T03:51:36;12.10;99.90
30001;DHT22;16845;48.670;9.000;2022-10-10T03:54:05;12.00;99.90
30001;DHT22;16845;48.670;9.000;2022-10-10T03:56:34;12.00;99.90
30001;DHT22;16845;48.670;9.000;2022-10-10T03:59:02;12.00;99.90
30001;DHT22;16845;48.670;9.000;2022-10-10T04:01:31;12.00;99.90
30001;DHT22;16845;48.670;9.000;2022-10-10T04:03:59;12.00;99.90
30001;DHT22;16845;48.670;9.000;2022-10-10T04:06:27;12.00;99.90
30001;DHT22;16845;48.670;9.000;2022-10-10T04:08:55;12.00;99.90
30001;DHT22;16845;48.670;9.000;2022-10-10T04:11:23;12.00;99.90
30001;DHT22;16845;48.670;9.000;2022-10-10T04:13:53;12.00;99.90
30001;DHT22;16845;48.670;9.000;2022-10-10T04:16:21;12.00;99.90
30001;DHT22;16845;48.670;9.000;2022-10-10T04:18:49;12.00;99.90
30001;DHT22;16845;48.670;9.000;2022-10-10T04:21:17;12.00;99.90
30001;DHT22;16845;48.670;9.000;2022-10-10T04:23:44;12.00;99.90
30001;DHT22;16845;48.670;9.000;2022-10-10T04:26:12;12.00;99.90
30001;DHT22;16845;48.670;9.000;2022-10-10T04:28:40;11.90;99.90
30001;DHT22;16845;48.670;9.000;2022-10-10T04:31:10;11.90;99.90
30001;DHT22;16845;48.670;9.000;2022-10-10T04:33:38;11.90;99.90
30001;DHT22;16845;48.670;9.000;2022-10-10T04:36:06;11.90;99.90
30001;DHT22;16845;48.670;9.000;2022-10-10T04:38:35;11.90;99.90
30001;DHT22;16845;48.670;9.000;2022-10-10T04:41:04;11.90;99.90
30001;DHT22;16845;48.670;9.000;2022-10-10T04:43:32;11.80;99.90
30001;DHT22;16845;48.670;9.000;2022-10-10T04:46:01;11.80;99.90
30001;DHT22;16845;48.670;9.000;2022-10-10T04:48:30;11.80;99.90
30001;DHT22;16845;48.670;9.000;2022-10-10T04:50:58;11.80;99.90
30001;DHT22;16845;48.670;9.000;2022-10-10T04:53:26;11.80;99.90
30001;DHT22;16845;48.670;9.000;2022-10-10T04:55:55;11.80;99.90
30001;DHT22;16845;48.670;9.000;2022-10-10T04:58:23;11.80;99.90
30001;DHT22;16845;48.670;9.000;2022-10-10T05:00:51;11.90;99.90
30001;DHT22;16845;48.670;9.000;2022-10-10T05:03:20;11.90;99.90
30001;DHT22;16845;48.670;9.000;2022-10-10T05:05:49;11.90;99.90
30001;DHT22;16845;48.670;9.000;2022-10-10T05:08:18;11.90;99.90
30001;DHT22;16845;48.670;9.000;2022-10-10T05:10:46;11.90;99.90
30001;DHT22;16845;48.670;9.000;2022-10-10T05:13:15;11.80;99.90
30001;DHT22;16845;48.670;9.000;2022-10-10T05:15:43;11.80;99.90
30001;DHT22;16845;48.670;9.000;2022-10-10T05:18:11;11.70;99.90
30001;DHT22;16845;48.670;9.000;2022-10-10T05:20:39;11.60;99.90
30001;DHT22;16845;48.670;9.000;2022-10-10T05:23:10;11.70;99.90
30001;DHT22;16845;48.670;9.000;2022-10-10T05:25:38;11.80;99.90
30001;DHT22;16845;48.670;9.000;2022-10-10T05:28:07;11.70;99.90
30001;DHT22;16845;48.670;9.000;2022-10-10T05:30:35;11.70;99.90
30001;DHT22;16845;48.670;9.000;2022-10-10T05:33:03;11.70;99.90
30001;DHT22;16845;48.670;9.000;2022-10-10T05:35:31;11.70;99.90
30001;DHT22;16845;48.670;9.000;2022-10-10T05:37:59;11.70;99.90
30001;DHT22;16845;48.670;9.000;2022-10-10T05:40:28;11.70;99.90
30001;DHT22;16845;48.670;9.000;2022-10-10T05:42:56;11.70;99.90
30001;DHT22;16845;48.670;9.000;2022-10-10T05:45:24;11.70;99.90
30001;DHT22;16845;48.670;9.000;2022-10-10T05:47:52;11.80;99.90
30001;DHT22;16845;48.670;9.000;2022-10-10T05:50:28;11.80;99.90
30001;DHT22;16845;48.670;9.000;2022-10-10T05:52:57;11.80;99.90
30001;DHT22;16845;48.670;9.000;2022-10-10T05:55:25;11.80;99.90
30001;DHT22;16845;48.670;9.000;2022-10-10T05:57:54;11.90;99.90
30001;DHT22;16845;48.670;9.000;2022-10-10T06:00:22;11.90;99.90
30001;DHT22;16845;48.670;9.000;2022-10-10T06:02:50;11.90;99.90
30001;DHT22;16845;48.670;9.000;2022-10-10T06:05:18;11.80;99.90
30001;DHT22;16845;48.670;9.000;2022-10-10T06:07:46;11.80;99.90
30001;DHT22;16845;48.670;9.000;2022-10-10T06:10:35;11.90;99.90
30001;DHT22;16845;48.670;9.000;2022-10-10T06:13:04;12.00;99.90
30001;DHT22;16845;48.670;9.000;2022-10-10T06:15:33;12.10;99.90
30001;DHT22;16845;48.670;9.000;2022-10-10T06:18:01;12.20;99.90
30001;DHT22;16845;48.670;9.000;2022-10-10T06:20:29;12.20;99.90
30001;DHT22;16845;48.670;9.000;2022-10-10T06:22:56;12.20;99.90
30001;DHT22;16845;48.670;9.000;2022-10-10T06:25:24;12.30;99.90
30001;DHT22;16845;48.670;9.000;2022-10-10T06:28:08;12.40;99.90
30001;DHT22;16845;48.670;9.000;2022-10-10T06:30:39;12.50;99.90
30001;DHT22;16845;48.670;9.000;2022-10-10T06:33:07;12.50;99.90
30001;DHT22;16845;48.670;9.000;2022-10-10T06:35:38;12.50;99.90
30001;DHT22;16845;48.670;9.000;2022-10-10T06:38:07;12.50;99.90
30001;DHT22;16845;48.670;9.000;2022-10-10T06:40:35;12.60;99.90
30001;DHT22;16845;48.670;9.000;2022-10-10T06:43:03;12.60;99.90
30001;DHT22;16845;48.670;9.000;2022-10-10T06:45:36;12.70;99.90
30001;DHT22;16845;48.670;9.000;2022-10-10T06:48:05;12.80;99.90
30001;DHT22;16845;48.670;9.000;2022-10-10T06:50:33;12.80;99.90
30001;DHT22;16845;48.670;9.000;2022-10-10T06:53:01;12.80;99.90
30001;DHT22;16845;48.670;9.000;2022-10-10T06:55:29;12.80;99.90
30001;DHT22;16845;48.670;9.000;2022-10-10T06:57:57;12.80;99.90
30001;DHT22;16845;48.670;9.000;2022-10-10T07:00:25;12.70;99.90
30001;DHT22;16845;48.670;9.000;2022-10-10T07:02:54;12.70;99.90
30001;DHT22;16845;48.670;9.000;2022-10-10T07:05:22;12.80;99.90
30001;DHT22;16845;48.670;9.000;2022-10-10T07:07:50;12.90;99.90
30001;DHT22;16845;48.670;9.000;2022-10-10T07:10:19;12.90;99.90
30001;DHT22;16845;48.670;9.000;2022-10-10T07:12:47;13.00;99.90
30001;DHT22;16845;48.670;9.000;2022-10-10T07:15:15;13.10;99.90
30001;DHT22;16845;48.670;9.000;2022-10-10T07:17:43;13.00;99.90
30001;DHT22;16845;48.670;9.000;2022-10-10T07:20:17;13.00;99.90
30001;DHT22;16845;48.670;9.000;2022-10-10T07:22:45;13.00;99.90
30001;DHT22;16845;48.670;9.000;2022-10-10T07:25:13;13.00;99.90
30001;DHT22;16845;48.670;9.000;2022-10-10T07:27:41;13.00;99.90
30001;DHT22;16845;48.670;9.000;2022-10-10T07:30:10;13.00;99.90
30001;DHT22;16845;48.670;9.000;2022-10-10T07:32:38;13.10;99.90
30001;DHT22;16845;48.670;9.000;2022-10-10T07:35:07;13.30;99.90
30001;DHT22;16845;48.670;9.000;2022-10-10T07:37:36;13.30;99.90
30001;DHT22;16845;48.670;9.000;2022-10-10T07:40:05;13.30;99.90
30001;DHT22;16845;48.670;9.000;2022-10-10T07:42:34;13.40;99.90
30001;DHT22;16845;48.670;9.000;2022-10-10T07:45:02;13.50;99.90
30001;DHT22;16845;48.670;9.000;2022-10-10T07:47:30;13.60;99.90
30001;DHT22;16845;48.670;9.000;2022-10-10T07:49:58;13.60;99.90
30001;DHT22;16845;48.670;9.000;2022-10-10T07:52:26;13.80;99.90
30001;DHT22;16845;48.670;9.000;2022-10-10T07:54:55;13.80;99.90
30001;DHT22;16845;48.670;9.000;2022-10-10T07:57:23;13.90;99.90
30001;DHT22;16845;48.670;9.000;2022-10-10T07:59:51;14.00;99.90
30001;DHT22;16845;48.670;9.000;2022-10-10T08:02:19;14.00;99.90
30001;DHT22;16845;48.670;9.000;2022-10-10T08:04:47;14.20;99.90
30001;DHT22;16845;48.670;9.000;2022-10-10T08:07:15;14.30;99.90
30001;DHT22;16845;48.670;9.000;2022-10-10T08:09:45;14.40;99.90
30001;DHT22;16845;48.670;9.000;2022-10-10T08:12:14;14.40;99.90
30001;DHT22;16845;48.670;9.000;2022-10-10T08:14:42;14.40;99.90
30001;DHT22;16845;48.670;9.000;2022-10-10T08:17:10;14.40;99.90
30001;DHT22;16845;48.670;9.000;2022-10-10T08:19:38;14.50;99.90
30001;DHT22;16845;48.670;9.000;2022-10-10T08:22:06;14.60;99.90
30001;DHT22;16845;48.670;9.000;2022-10-10T08:24:34;14.70;99.90
30001;DHT22;16845;48.670;9.000;2022-10-10T08:27:02;14.80;99.90
30001;DHT22;16845;48.670;9.000;2022-10-10T08:29:32;14.90;99.90
30001;DHT22;16845;48.670;9.000;2022-10-10T08:32:00;15.00;99.90
30001;DHT22;16845;48.670;9.000;2022-10-10T08:34:28;15.10;99.90
30001;DHT22;16845;48.670;9.000;2022-10-10T08:36:56;15.10;99.90
30001;DHT22;16845;48.670;9.000;2022-10-10T08:39:23;15.20;99.90
30001;DHT22;16845;48.670;9.000;2022-10-10T08:41:54;15.30;99.90
30001;DHT22;16845;48.670;9.000;2022-10-10T08:44:28;15.40;99.90
30001;DHT22;16845;48.670;9.000;2022-10-10T08:47:01;15.40;99.90
30001;DHT22;16845;48.670;9.000;2022-10-10T08:49:33;15.60;99.90
30001;DHT22;16845;48.670;9.000;2022-10-10T08:52:05;15.80;99.90
30001;DHT22;16845;48.670;9.000;2022-10-10T08:54:36;16.00;99.90
30001;DHT22;16845;48.670;9.000;2022-10-10T08:57:09;16.10;99.90
30001;DHT22;16845;48.670;9.000;2022-10-10T08:59:42;16.20;99.90
30001;DHT22;16845;48.670;9.000;2022-10-10T09:02:31;16.40;99.90
30001;DHT22;16845;48.670;9.000;2022-10-10T09:05:23;16.50;99.90
30001;DHT22;16845;48.670;9.000;2022-10-10T09:08:11;16.40;99.90
30001;DHT22;16845;48.670;9.000;2022-10-10T09:10:48;16.60;99.90
30001;DHT22;16845;48.670;9.000;2022-10-10T09:13:24;16.50;99.90
30001;DHT22;16845;48.670;9.000;2022-10-10T09:15:57;16.50;99.90
30001;DHT22;16845;48.670;9.000;2022-10-10T09:18:40;16.70;99.90
30001;DHT22;16845;48.670;9.000;2022-10-10T09:21:16;16.70;99.90
30001;DHT22;16845;48.670;9.000;2022-10-10T09:23:50;16.70;99.90
30001;DHT22;16845;48.670;9.000;2022-10-10T09:26:23;16.70;99.90
30001;DHT22;16845;48.670;9.000;2022-10-10T09:28:54;16.70;99.90
30001;DHT22;16845;48.670;9.000;2022-10-10T09:31:30;16.90;99.90
30001;DHT22;16845;48.670;9.000;2022-10-10T09:34:03;17.20;99.90
30001;DHT22;16845;48.670;9.000;2022-10-10T09:36:34;17.30;99.90
30001;DHT22;16845;48.670;9.000;2022-10-10T09:39:11;17.50;99.90
30001;DHT22;16845;48.670;9.000;2022-10-10T09:41:45;17.50;99.90
30001;DHT22;16845;48.670;9.000;2022-10-10T09:44:14;17.60;99.90
30001;DHT22;16845;48.670;9.000;2022-10-10T09:46:46;17.50;99.90
30001;DHT22;16845;48.670;9.000;2022-10-10T09:49:16;17.60;99.90
30001;DHT22;16845;48.670;9.000;2022-10-10T09:51:46;17.80;99.90
30001;DHT22;16845;48.670;9.000;2022-10-10T09:54:17;17.90;99.90
30001;DHT22;16845;48.670;9.000;2022-10-10T09:56:48;18.10;99.90
30001;DHT22;16845;48.670;9.000;2022-10-10T09:59:37;18.10;99.90
30001;DHT22;16845;48.670;9.000;2022-10-10T10:02:13;18.10;99.90
30001;DHT22;16845;48.670;9.000;2022-10-10T10:04:42;18.30;99.90
30001;DHT22;16845;48.670;9.000;2022-10-10T10:07:19;18.40;99.90
30001;DHT22;16845;48.670;9.000;2022-10-10T10:09:48;18.30;99.90
30001;DHT22;16845;48.670;9.000;2022-10-10T10:12:21;18.20;99.90
30001;DHT22;16845;48.670;9.000;2022-10-10T10:14:51;18.20;99.90
30001;DHT22;16845;48.670;9.000;2022-10-10T10:17:21;18.40;99.90
30001;DHT22;16845;48.670;9.000;2022-10-10T10:19:51;18.30;99.90
30001;DHT22;16845;48.670;9.000;2022-10-10T10:22:25;18.30;99.90
30001;DHT22;16845;48.670;9.000;2022-10-10T10:24:53;18.30;99.90
30001;DHT22;16845;48.670;9.000;2022-10-10T10:27:22;18.40;99.90
30001;DHT22;16845;48.670;9.000;2022-10-10T10:29:52;18.50;99.90
30001;DHT22;16845;48.670;9.000;2022-10-10T10:32:41;18.70;99.90
30001;DHT22;16845;48.670;9.000;2022-10-10T10:35:24;18.60;99.90
30001;DHT22;16845;48.670;9.000;2022-10-10T10:38:12;18.50;99.90
30001;DHT22;16845;48.670;9.000;2022-10-10T10:40:48;18.30;99.90
30001;DHT22;16845;48.670;9.000;2022-10-10T10:43:33;18.20;99.90
30001;DHT22;16845;48.670;9.000;2022-10-10T10:46:10;18.10;99.90
30001;DHT22;16845;48.670;9.000;2022-10-10T10:48:44;17.90;99.90
30001;DHT22;16845;48.670;9.000;2022-10-10T10:51:35;17.80;99.90
30001;DHT22;16845;48.670;9.000;2022-10-10T10:54:23;17.70;99.90
30001;DHT22;16845;48.670;9.000;2022-10-10T10:56:55;17.80;99.90
30001;DHT22;16845;48.670;9.000;2022-10-10T10:59:40;17.80;99.90
30001;DHT22;16845;48.670;9.000;2022-10-10T11:02:37;17.80;99.90
30001;DHT22;16845;48.670;9.000;2022-10-10T11:05:36;17.90;99.90
30001;DHT22;16845;48.670;9.000;2022-10-10T11:08:27;18.00;99.90
30001;DHT22;16845;48.670;9.000;2022-10-10T11:10:59;18.10;99.90
30001;DHT22;16845;48.670;9.000;2022-10-10T11:13:36;18.20;99.90
30001;DHT22;16845;48.670;9.000;2022-10-10T11:16:13;18.30;99.90
30001;DHT22;16845;48.670;9.000;2022-10-10T11:19:14;18.50;99.90
30001;DHT22;16845;48.670;9.000;2022-10-10T11:21:46;18.50;99.90
30001;DHT22;16845;48.670;9.000;2022-10-10T11:24:23;18.60;99.90
30001;DHT22;16845;48.670;9.000;2022-10-10T11:26:56;18.70;99.90
30001;DHT22;16845;48.670;9.000;2022-10-10T11:29:29;18.80;99.90
30001;DHT22;16845;48.670;9.000;2022-10-10T11:32:03;18.90;99.90
30001;DHT22;16845;48.670;9.000;2022-10-10T11:34:39;19.10;99.90
30001;DHT22;16845;48.670;9.000;2022-10-10T11:37:12;19.20;99.90
30001;DHT22;16845;48.670;9.000;2022-10-10T11:39:45;19.20;99.90
30001;DHT22;16845;48.670;9.000;2022-10-10T11:42:18;19.30;99.90
30001;DHT22;16845;48.670;9.000;2022-10-10T11:44:52;19.30;99.90
30001;DHT22;16845;48.670;9.000;2022-10-10T11:47:26;19.30;99.90
30001;DHT22;16845;48.670;9.000;2022-10-10T11:49:59;19.40;99.90
30001;DHT22;16845;48.670;9.000;2022-10-10T11:52:32;19.30;99.90
30001;DHT22;16845;48.670;9.000;2022-10-10T11:55:09;19.30;99.90
30001;DHT22;16845;48.670;9.000;2022-10-10T11:57:39;19.40;99.90
30001;DHT22;16845;48.670;9.000;2022-10-10T12:00:12;19.40;99.90
30001;DHT22;16845;48.670;9.000;2022-10-10T12:02:41;19.40;99.90
30001;DHT22;16845;48.670;9.000;2022-10-10T12:05:19;19.50;99.90
30001;DHT22;16845;48.670;9.000;2022-10-10T12:08:00;20.10;99.90
30001;DHT22;16845;48.670;9.000;2022-10-10T12:10:33;20.40;99.90
30001;DHT22;16845;48.670;9.000;2022-10-10T12:13:15;21.90;99.90
30001;DHT22;16845;48.670;9.000;2022-10-10T12:15:49;23.80;99.90
30001;DHT22;16845;48.670;9.000;2022-10-10T12:18:23;25.50;99.90
30001;DHT22;16845;48.670;9.000;2022-10-10T12:21:03;26.40;99.90
30001;DHT22;16845;48.670;9.000;2022-10-10T12:23:32;27.50;99.90
30001;DHT22;16845;48.670;9.000;2022-10-10T12:26:01;28.60;99.90
30001;DHT22;16845;48.670;9.000;2022-10-10T12:28:35;28.20;99.90
30001;DHT22;16845;48.670;9.000;2022-10-10T12:31:32;27.40;99.90
30001;DHT22;16845;48.670;9.000;2022-10-10T12:34:12;27.60;99.90
30001;DHT22;16845;48.670;9.000;2022-10-10T12:36:53;29.40;99.90
30001;DHT22;16845;48.670;9.000;2022-10-10T12:39:36;30.60;97.70
30001;DHT22;16845;48.670;9.000;2022-10-10T12:42:27;32.00;96.50
30001;DHT22;16845;48.670;9.000;2022-10-10T12:44:55;32.00;94.00
30001;DHT22;16845;48.670;9.000;2022-10-10T12:47:41;32.90;93.60
30001;DHT22;16845;48.670;9.000;2022-10-10T12:50:34;34.70;91.30
30001;DHT22;16845;48.670;9.000;2022-10-10T12:53:04;32.80;88.60
30001;DHT22;16845;48.670;9.000;2022-10-10T12:55:40;33.20;87.20
30001;DHT22;16845;48.670;9.000;2022-10-10T12:58:16;33.40;87.80
30001;DHT22;16845;48.670;9.000;2022-10-10T13:00:54;34.00;85.70
30001;DHT22;16845;48.670;9.000;2022-10-10T13:03:27;35.10;82.60
30001;DHT22;16845;48.670;9.000;2022-10-10T13:06:01;35.20;76.10
30001;DHT22;16845;48.670;9.000;2022-10-10T13:08:31;35.20;77.00
30001;DHT22;16845;48.670;9.000;2022-10-10T13:11:01;34.70;74.50
30001;DHT22;16845;48.670;9.000;2022-10-10T13:13:32;34.40;73.70
30001;DHT22;16845;48.670;9.000;2022-10-10T13:16:06;35.40;72.40
30001;DHT22;16845;48.670;9.000;2022-10-10T13:18:36;35.80;67.30
30001;DHT22;16845;48.670;9.000;2022-10-10T13:21:07;34.50;68.60
30001;DHT22;16845;48.670;9.000;2022-10-10T13:23:39;33.90;66.40
30001;DHT22;16845;48.670;9.000;2022-10-10T13:26:22;32.50;65.40
30001;DHT22;16845;48.670;9.000;2022-10-10T13:28:53;30.90;69.20
30001;DHT22;16845;48.670;9.000;2022-10-10T13:31:23;29.60;71.40
30001;DHT22;16845;48.670;9.000;2022-10-10T13:33:56;28.00;73.90
30001;DHT22;16845;48.670;9.000;2022-10-10T13:36:27;26.60;75.00
30001;DHT22;16845;48.670;9.000;2022-10-10T13:38:56;25.40;78.70
30001;DHT22;16845;48.670;9.000;2022-10-10T13:41:25;24.60;80.50
30001;DHT22;16845;48.670;9.000;2022-10-10T13:43:55;23.90;81.20
30001;DHT22;16845;48.670;9.000;2022-10-10T13:46:29;23.20;84.00
30001;DHT22;16845;48.670;9.000;2022-10-10T13:48:58;22.60;86.60
30001;DHT22;16845;48.670;9.000;2022-10-10T13:51:41;21.90;88.30
30001;DHT22;16845;48.670;9.000;2022-10-10T13:54:37;21.30;90.40
30001;DHT22;16845;48.670;9.000;2022-10-10T13:57:11;20.90;90.20
30001;DHT22;16845;48.670;9.000;2022-10-10T13:59:42;20.60;91.80
30001;DHT22;16845;48.670;9.000;2022-10-10T14:02:12;20.50;92.60
30001;DHT22;16845;48.670;9.000;2022-10-10T14:04:46;20.40;94.30
30001;DHT22;16845;48.670;9.000;2022-10-10T14:07:18;20.30;94.30
30001;DHT22;16845;48.670;9.000;2022-10-10T14:09:50;20.20;93.70
30001;DHT22;16845;48.670;9.000;2022-10-10T14:12:26;20.30;94.20
30001;DHT22;16845;48.670;9.000;2022-10-10T14:14:57;20.30;94.60
30001;DHT22;16845;48.670;9.000;2022-10-10T14:17:27;20.30;94.50
30001;DHT22;16845;48.670;9.000;2022-10-10T14:19:56;20.30;94.90
30001;DHT22;16845;48.670;9.000;2022-10-10T14:22:25;20.40;95.50
30001;DHT22;16845;48.670;9.000;2022-10-10T14:24:53;20.50;94.90
30001;DHT22;16845;48.670;9.000;2022-10-10T14:27:23;20.60;95.60
30001;DHT22;16845;48.670;9.000;2022-10-10T14:29:53;20.60;95.00
30001;DHT22;16845;48.670;9.000;2022-10-10T14:32:23;20.40;95.50
30001;DHT22;16845;48.670;9.000;2022-10-10T14:34:51;20.20;95.80
30001;DHT22;16845;48.670;9.000;2022-10-10T14:37:23;20.10;97.10
30001;DHT22;16845;48.670;9.000;2022-10-10T14:39:51;20.00;98.80
30001;DHT22;16845;48.670;9.000;2022-10-10T14:42:20;19.90;99.90
30001;DHT22;16845;48.670;9.000;2022-10-10T14:44:49;19.90;99.90
30001;DHT22;16845;48.670;9.000;2022-10-10T14:47:18;20.10;99.20
30001;DHT22;16845;48.670;9.000;2022-10-10T14:49:48;20.20;99.50
30001;DHT22;16845;48.670;9.000;2022-10-10T14:52:18;20.20;99.90
30001;DHT22;16845;48.670;9.000;2022-10-10T14:54:46;20.20;99.90
30001;DHT22;16845;48.670;9.000;2022-10-10T14:57:14;20.20;99.90
30001;DHT22;16845;48.670;9.000;2022-10-10T14:59:42;20.10;99.90
30001;DHT22;16845;48.670;9.000;2022-10-10T15:02:17;19.90;99.90
30001;DHT22;16845;48.670;9.000;2022-10-10T15:04:45;19.60;99.90
30001;DHT22;16845;48.670;9.000;2022-10-10T15:07:15;19.60;99.90
30001;DHT22;16845;48.670;9.000;2022-10-10T15:09:43;19.60;99.90
30001;DHT22;16845;48.670;9.000;2022-10-10T15:12:32;19.50;99.90
30001;DHT22;16845;48.670;9.000;2022-10-10T15:15:01;19.50;99.90
30001;DHT22;16845;48.670;9.000;2022-10-10T15:17:29;19.40;99.90
30001;DHT22;16845;48.670;9.000;2022-10-10T15:20:00;19.40;99.90
30001;DHT22;16845;48.670;9.000;2022-10-10T15:22:29;19.50;99.90
30001;DHT22;16845;48.670;9.000;2022-10-10T15:24:57;19.50;99.90
30001;DHT22;16845;48.670;9.000;2022-10-10T15:27:26;19.30;99.90
30001;DHT22;16845;48.670;9.000;2022-10-10T15:29:54;19.20;99.90
30001;DHT22;16845;48.670;9.000;2022-10-10T15:32:22;19.10;99.90
30001;DHT22;16845;48.670;9.000;2022-10-10T15:34:51;19.00;99.90
30001;DHT22;16845;48.670;9.000;2022-10-10T15:37:22;18.90;99.90
30001;DHT22;16845;48.670;9.000;2022-10-10T15:39:51;18.80;99.90
30001;DHT22;16845;48.670;9.000;2022-10-10T15:42:20;18.70;99.90
30001;DHT22;16845;48.670;9.000;2022-10-10T15:44:49;18.50;99.90
30001;DHT22;16845;48.670;9.000;2022-10-10T15:47:18;18.40;99.90
30001;DHT22;16845;48.670;9.000;2022-10-10T15:49:47;18.40;99.90
30001;DHT22;16845;48.670;9.000;2022-10-10T15:52:15;18.30;99.90
30001;DHT22;16845;48.670;9.000;2022-10-10T15:54:43;18.20;99.90
30001;DHT22;16845;48.670;9.000;2022-10-10T15:57:15;18.20;99.90
30001;DHT22;16845;48.670;9.000;2022-10-10T15:59:45;18.20;99.90